Time;durP1;ratioP1;P1;durP2;ratioP2;P2;SDS_P1;SDS_P2;PMS_P1;PMS_P2;Temp;Humidity;BMP_temperature;BMP_pressure;BME280_temperature;BME280_humidity;BME280_pressure;Samples;Min_cycle;Max_cycle;Signal;HPM_P1;HPM_P2
2023/05/23 00:00:27;;;;;;;31.08;17.33;;;;;;;15.41;100.00;101106.31;6206136;28;20046;-73
2023/05/23 00:03:30;;;;;;;32.85;17.50;;;;;;;15.43;100.00;101119.44;6206251;28;20046;-73
2023/05/23 00:06:33;;;;;;;28.23;16.77;;;;;;;15.39;100.00;101120.59;6206464;28;20104;-73
2023/05/23 00:09:34;;;;;;;32.08;14.43;;;;;;;15.32;100.00;101114.03;6205860;28;20055;-73
2023/05/23 00:12:36;;;;;;;28.38;15.00;;;;;;;15.22;100.00;101106.72;6206312;28;20061;-74
2023/05/23 00:15:37;;;;;;;23.27;13.02;;;;;;;15.14;100.00;101101.06;6206547;28;20181;-73
2023/05/23 00:18:41;;;;;;;20.67;12.98;;;;;;;15.12;100.00;101110.91;6205498;28;20046;-73
2023/05/23 00:21:44;;;;;;;22.80;11.40;;;;;;;15.06;100.00;101103.38;6205924;28;20054;-73
2023/05/23 00:24:45;;;;;;;18.35;10.50;;;;;;;14.90;100.00;101108.00;6206120;28;20046;-73
2023/05/23 00:27:47;;;;;;;20.25;10.52;;;;;;;14.85;100.00;101096.84;6206080;28;20050;-73
2023/05/23 00:30:48;;;;;;;19.83;11.13;;;;;;;14.82;100.00;101099.72;6205070;28;20443;-73
2023/05/23 00:33:51;;;;;;;20.13;10.88;;;;;;;14.75;100.00;101104.53;6204990;28;20054;-74
2023/05/23 00:36:53;;;;;;;18.05;10.23;;;;;;;14.71;100.00;101105.69;6205628;28;20054;-73
2023/05/23 00:39:54;;;;;;;22.67;11.25;;;;;;;14.68;100.00;101108.53;6205272;28;20050;-73
2023/05/23 00:42:55;;;;;;;21.85;10.93;;;;;;;14.72;100.00;101112.69;6205613;28;20336;-73
2023/05/23 00:45:57;;;;;;;17.65;10.50;;;;;;;14.71;100.00;101116.25;6205560;28;20455;-73
2023/05/23 00:49:00;;;;;;;21.88;10.35;;;;;;;14.69;100.00;101115.53;6204761;28;20058;-73
2023/05/23 00:52:02;;;;;;;23.33;12.20;;;;;;;14.67;100.00;101106.81;6205602;28;20050;-73
2023/05/23 00:55:04;;;;;;;19.02;10.30;;;;;;;14.63;100.00;101113.28;6205608;28;20046;-73
2023/05/23 00:58:06;;;;;;;21.38;11.25;;;;;;;14.55;100.00;101119.06;6205154;28;20450;-72
2023/05/23 01:01:08;;;;;;;23.25;12.15;;;;;;;14.62;100.00;101120.34;6204664;28;20057;-73
2023/05/23 01:04:12;;;;;;;23.15;11.07;;;;;;;14.69;100.00;101123.47;6205194;28;20174;-73
2023/05/23 01:07:13;;;;;;;20.58;10.93;;;;;;;14.59;100.00;101117.91;6205041;28;20470;-73
2023/05/23 01:10:17;;;;;;;17.08;9.45;;;;;;;14.54;100.00;101117.38;6204510;28;20054;-72
2023/05/23 01:13:23;;;;;;;21.20;10.50;;;;;;;14.56;100.00;101123.41;6205344;28;20054;-73
2023/05/23 01:16:32;;;;;;;17.17;10.80;;;;;;;14.55;100.00;101124.34;6205002;28;20050;-73
2023/05/23 01:19:49;;;;;;;18.38;9.18;;;;;;;14.43;100.00;101117.16;6203811;28;20050;-72
2023/05/23 01:23:11;;;;;;;17.35;9.27;;;;;;;14.45;100.00;101118.75;6203912;28;20050;-72
2023/05/23 01:26:25;;;;;;;20.52;9.32;;;;;;;14.48;100.00;101120.38;6204668;28;20054;-73
2023/05/23 01:29:32;;;;;;;24.05;9.90;;;;;;;14.54;100.00;101127.09;6204049;28;20053;-73
2023/05/23 01:32:33;;;;;;;16.25;9.90;;;;;;;14.47;100.00;101118.66;6204737;28;20054;-73
2023/05/23 01:35:35;;;;;;;19.17;9.65;;;;;;;14.43;100.00;101125.94;6204722;28;20054;-73
2023/05/23 01:38:37;;;;;;;16.60;9.55;;;;;;;14.41;100.00;101119.91;6204072;28;20046;-73
2023/05/23 01:41:38;;;;;;;13.02;8.65;;;;;;;14.50;100.00;101113.22;6204293;28;20057;-73
2023/05/23 01:44:41;;;;;;;16.08;9.13;;;;;;;14.46;100.00;101122.25;6204560;28;20054;-73
2023/05/23 01:47:44;;;;;;;17.85;9.05;;;;;;;14.46;100.00;101123.09;6204328;28;20061;-73
2023/05/23 01:50:46;;;;;;;20.50;9.27;;;;;;;14.40;100.00;101133.22;6202853;28;20503;-73
2023/05/23 01:53:48;;;;;;;18.02;9.85;;;;;;;14.42;100.00;101128.69;6203810;28;20046;-73
2023/05/23 01:56:50;;;;;;;19.50;9.90;;;;;;;14.40;100.00;101127.94;6203802;28;20054;-73
2023/05/23 01:59:53;;;;;;;19.90;10.27;;;;;;;14.43;100.00;101133.03;6203391;28;20089;-73
2023/05/23 02:02:55;;;;;;;13.88;7.45;;;;;;;14.42;100.00;101136.63;6203976;28;20053;-73
2023/05/23 02:05:56;;;;;;;15.63;9.15;;;;;;;14.47;100.00;101134.53;6201473;28;20054;-73
2023/05/23 02:08:57;;;;;;;19.65;8.88;;;;;;;14.51;100.00;101136.06;6203029;28;20046;-73
2023/05/23 02:11:59;;;;;;;17.25;8.52;;;;;;;14.51;100.00;101135.22;6203462;28;20113;-73
2023/05/23 02:15:02;;;;;;;20.27;8.85;;;;;;;14.52;100.00;101132.47;6194966;28;20046;-73
2023/05/23 02:18:05;;;;;;;20.95;9.95;;;;;;;14.51;100.00;101136.06;6211118;28;20407;-72
2023/05/23 02:21:06;;;;;;;17.17;8.95;;;;;;;14.48;100.00;101136.25;6201766;28;20054;-73
2023/05/23 02:24:08;;;;;;;14.50;8.10;;;;;;;14.42;100.00;101134.81;6198313;28;20222;-73
2023/05/23 02:27:09;;;;;;;17.23;8.48;;;;;;;14.36;100.00;101145.78;6207784;28;20458;-73
2023/05/23 02:30:13;;;;;;;17.98;8.57;;;;;;;14.39;100.00;101139.44;6210202;28;20129;-73
2023/05/23 02:33:15;;;;;;;15.00;8.27;;;;;;;14.38;100.00;101143.03;6202807;28;20042;-73
2023/05/23 02:36:16;;;;;;;15.02;8.45;;;;;;;14.36;100.00;101137.00;6202999;28;20046;-73
2023/05/23 02:39:18;;;;;;;20.52;9.65;;;;;;;14.32;100.00;101133.72;6199891;28;20078;-73
2023/05/23 02:42:19;;;;;;;21.88;10.98;;;;;;;14.39;100.00;101134.16;6204879;28;20046;-73
2023/05/23 02:45:22;;;;;;;18.83;9.98;;;;;;;14.38;100.00;101138.59;6200980;28;20430;-73
2023/05/23 02:48:24;;;;;;;23.10;11.27;;;;;;;14.39;100.00;101134.16;6199392;28;20050;-73
2023/05/23 02:51:25;;;;;;;19.85;10.38;;;;;;;14.34;100.00;101138.88;6209327;28;20434;-73
2023/05/23 02:54:27;;;;;;;24.48;10.98;;;;;;;14.34;100.00;101142.38;6219484;28;20366;-73
2023/05/23 02:57:28;;;;;;;20.75;10.77;;;;;;;14.34;100.00;101130.94;6201565;28;20361;-73
2023/05/23 03:00:31;;;;;;;19.88;11.38;;;;;;;14.29;100.00;101130.41;6194844;28;20043;-72
2023/05/23 03:03:32;;;;;;;21.60;11.38;;;;;;;14.28;100.00;101126.06;6204367;28;20133;-73
2023/05/23 03:06:35;;;;;;;20.30;11.65;;;;;;;14.27;100.00;101130.50;6182272;28;20050;-73
2023/05/23 03:09:36;;;;;;;21.60;11.05;;;;;;;14.25;100.00;101128.88;6179608;28;20077;-73
2023/05/23 03:12:38;;;;;;;22.17;11.40;;;;;;;14.24;100.00;101122.75;6181517;28;20613;-73
2023/05/23 03:15:41;;;;;;;19.40;10.88;;;;;;;14.27;100.00;101111.16;6182792;28;20132;-73
2023/05/23 03:18:42;;;;;;;22.40;11.27;;;;;;;14.25;100.00;101118.31;6184399;28;20045;-73
2023/05/23 03:21:43;;;;;;;22.17;10.55;;;;;;;14.25;100.00;101120.97;6181642;28;20081;-73
2023/05/23 03:24:45;;;;;;;22.52;11.05;;;;;;;14.26;100.00;101114.72;6173419;28;20129;-73
2023/05/23 03:27:46;;;;;;;17.85;9.60;;;;;;;14.29;100.00;101117.19;6195560;28;20054;-73
2023/05/23 03:30:49;;;;;;;15.27;9.75;;;;;;;14.29;100.00;101120.66;6194314;28;20057;-73
2023/05/23 03:33:50;;;;;;;20.30;9.55;;;;;;;14.29;100.00;101111.91;6194172;28;20057;-73
2023/05/23 03:36:51;;;;;;;21.02;9.65;;;;;;;14.26;100.00;101112.94;6195123;28;20050;-73
2023/05/23 03:39:53;;;;;;;19.77;9.65;;;;;;;14.22;100.00;101111.44;6192154;28;20054;-73
2023/05/23 03:43:04;;;;;;;19.40;10.23;;;;;;;14.24;100.00;101112.19;6182060;28;20050;-73
2023/05/23 03:46:07;;;;;;;19.42;9.43;;;;;;;14.23;100.00;101113.13;6180330;28;20748;-73
2023/05/23 03:49:08;;;;;;;18.30;8.63;;;;;;;14.20;100.00;101114.16;6182184;28;20045;-73
2023/05/23 03:52:09;;;;;;;18.33;9.18;;;;;;;14.29;100.00;101118.03;6200351;28;20057;-73
2023/05/23 03:55:11;;;;;;;18.85;8.50;;;;;;;14.24;100.00;101114.81;6215644;28;20050;-73
2023/05/23 03:58:12;;;;;;;16.45;8.77;;;;;;;14.16;100.00;101122.38;6191527;28;20047;-73
2023/05/23 04:01:15;;;;;;;17.83;9.35;;;;;;;14.04;100.00;101118.72;6212358;28;20045;-73
2023/05/23 04:04:17;;;;;;;21.38;9.75;;;;;;;14.06;100.00;101121.25;6205886;28;20051;-72
2023/05/23 04:07:18;;;;;;;21.73;9.45;;;;;;;14.03;100.00;101117.00;6202609;28;20057;-72
2023/05/23 04:10:19;;;;;;;24.85;9.63;;;;;;;14.03;100.00;101122.28;6196456;28;20047;-73
2023/05/23 04:13:22;;;;;;;20.55;9.27;;;;;;;14.00;100.00;101119.00;6202325;28;20050;-73
2023/05/23 04:16:24;;;;;;;21.95;9.75;;;;;;;14.02;100.00;101117.09;6208181;28;20050;-72
2023/05/23 04:19:26;;;;;;;17.70;9.77;;;;;;;14.19;100.00;101123.03;6223608;28;20053;-72
2023/05/23 04:22:27;;;;;;;21.73;9.32;;;;;;;14.03;100.00;101124.94;6217884;28;20359;-73
2023/05/23 04:25:28;;;;;;;17.25;9.65;;;;;;;13.96;100.00;101121.81;6217284;28;20056;-73
2023/05/23 04:28:30;;;;;;;18.52;8.98;;;;;;;13.95;100.00;101120.13;6224861;28;20053;-73
2023/05/23 04:31:33;;;;;;;17.75;9.45;;;;;;;13.98;100.00;101123.53;6223405;28;20046;-73
2023/05/23 04:34:36;;;;;;;14.40;8.02;;;;;;;14.06;100.00;101121.25;6209408;28;20058;-74
2023/05/23 04:37:38;;;;;;;19.15;10.13;;;;;;;13.96;100.00;101121.81;6225202;28;20133;-73
2023/05/23 04:40:39;;;;;;;17.55;9.23;;;;;;;13.97;100.00;101125.31;6224640;28;20175;-73
2023/05/23 04:43:41;;;;;;;16.52;9.32;;;;;;;13.99;100.00;101118.16;6228740;28;20073;-73
2023/05/23 04:46:44;;;;;;;21.23;10.70;;;;;;;13.94;100.00;101122.84;6226092;28;20046;-73
2023/05/23 04:49:46;;;;;;;21.05;10.98;;;;;;;13.93;100.00;101121.16;6217440;28;20046;-73
2023/05/23 04:52:48;;;;;;;18.55;10.02;;;;;;;13.97;100.00;101125.31;6223138;28;20135;-73
2023/05/23 04:55:49;;;;;;;24.70;11.95;;;;;;;13.92;100.00;101124.75;6229003;28;20054;-73
2023/05/23 04:58:51;;;;;;;24.60;11.23;;;;;;;13.98;100.00;101123.53;6228653;28;20081;-73
2023/05/23 05:01:53;;;;;;;22.55;11.38;;;;;;;14.00;100.00;101129.56;6210977;28;20055;-73
2023/05/23 05:04:55;;;;;;;24.27;12.05;;;;;;;13.98;100.00;101124.38;6204997;28;20061;-73
2023/05/23 05:07:56;;;;;;;32.03;13.25;;;;;;;13.99;100.00;101133.13;6205113;28;20050;-73
2023/05/23 05:10:57;;;;;;;29.15;12.50;;;;;;;14.00;100.00;101134.88;6204218;28;20053;-73
2023/05/23 05:13:59;;;;;;;23.90;11.73;;;;;;;13.99;100.00;101135.78;6204629;28;20458;-73
2023/05/23 05:17:02;;;;;;;27.23;12.18;;;;;;;13.98;100.00;101142.88;6204624;28;20332;-72
2023/05/23 05:20:07;;;;;;;24.33;11.23;;;;;;;14.02;100.00;101141.72;6206533;28;20043;-73
2023/05/23 05:23:08;;;;;;;18.95;9.35;;;;;;;14.00;100.00;101148.06;6225200;28;20140;-73
2023/05/23 05:26:10;;;;;;;18.75;9.02;;;;;;;14.00;100.00;101148.91;6228802;28;20056;-74
2023/05/23 05:29:12;;;;;;;20.20;9.05;;;;;;;13.90;100.00;101159.22;6228017;28;20342;-72
2023/05/23 05:32:15;;;;;;;18.58;9.13;;;;;;;13.93;100.00;101158.16;6228634;28;20457;-74
2023/05/23 05:35:16;;;;;;;17.25;7.72;;;;;;;13.90;100.00;101158.34;6228447;28;20070;-73
2023/05/23 05:38:18;;;;;;;16.83;7.78;;;;;;;13.86;100.00;101157.69;6228351;28;20346;-73
2023/05/23 05:41:20;;;;;;;11.98;6.57;;;;;;;13.84;100.00;101167.47;6227976;28;20042;-75
2023/05/23 05:44:22;;;;;;;16.20;7.78;;;;;;;13.84;100.00;101159.56;6222279;28;20454;-72
2023/05/23 05:47:25;;;;;;;14.20;7.03;;;;;;;13.84;100.00;101166.63;6204123;28;20047;-74
2023/05/23 05:50:26;;;;;;;11.68;5.97;;;;;;;13.86;100.00;101170.91;6203494;28;20049;-74
2023/05/23 05:53:27;;;;;;;10.50;6.18;;;;;;;13.76;100.00;101167.09;6195850;28;20158;-73
2023/05/23 05:56:29;;;;;;;10.27;6.13;;;;;;;13.75;100.00;101170.69;6226692;28;20053;-73
2023/05/23 05:59:30;;;;;;;13.98;6.28;;;;;;;13.71;100.00;101172.66;6227164;28;20080;-73
2023/05/23 06:02:33;;;;;;;11.73;6.63;;;;;;;13.72;100.00;101178.81;6222586;28;20383;-75
2023/05/23 06:05:36;;;;;;;10.95;5.03;;;;;;;13.76;100.00;101180.28;6200726;28;20042;-74
2023/05/23 06:08:37;;;;;;;14.18;5.22;;;;;;;13.80;100.00;101184.44;6201096;28;20046;-75
2023/05/23 06:11:39;;;;;;;8.95;5.00;;;;;;;13.79;100.00;101200.41;6199923;28;20063;-74
2023/05/23 06:14:41;;;;;;;7.40;4.47;;;;;;;13.76;100.00;101204.06;6203207;28;20053;-75
2023/05/23 06:17:43;;;;;;;7.50;4.65;;;;;;;13.73;100.00;101204.28;6212275;28;20052;-75
2023/05/23 06:20:45;;;;;;;8.13;4.32;;;;;;;13.64;100.00;101208.31;6202261;28;20134;-74
2023/05/23 06:23:46;;;;;;;7.82;4.78;;;;;;;13.71;100.00;101206.97;6205396;28;20050;-74
2023/05/23 06:26:47;;;;;;;8.43;4.78;;;;;;;13.64;100.00;101216.22;6201274;28;20057;-74
2023/05/23 06:29:49;;;;;;;8.50;4.80;;;;;;;13.55;100.00;101222.03;6197878;28;20050;-74
2023/05/23 06:32:52;;;;;;;10.93;5.45;;;;;;;13.54;100.00;101219.50;6200605;28;20491;-73
2023/05/23 06:35:53;;;;;;;8.25;4.95;;;;;;;13.50;100.00;101220.63;6201998;28;20076;-74
2023/05/23 06:38:54;;;;;;;8.15;5.00;;;;;;;13.49;100.00;101224.16;6193326;28;20363;-73
2023/05/23 06:41:56;;;;;;;12.10;5.25;;;;;;;13.50;100.00;101221.47;6197157;28;20351;-73
2023/05/23 06:44:57;;;;;;;10.82;4.70;;;;;;;13.50;100.00;101223.25;6199700;28;20379;-74
2023/05/23 06:48:00;;;;;;;6.55;4.43;;;;;;;13.49;100.00;101224.16;6202210;28;20073;-74
2023/05/23 06:51:01;;;;;;;10.70;5.10;;;;;;;13.38;100.00;101225.66;6196517;28;20177;-73
2023/05/23 06:54:03;;;;;;;7.75;4.22;;;;;;;13.40;100.00;101236.13;6203297;28;20051;-74
2023/05/23 06:57:05;;;;;;;9.88;4.60;;;;;;;13.37;100.00;101242.44;6199025;28;20351;-74
2023/05/23 07:00:07;;;;;;;13.50;5.97;;;;;;;13.25;100.00;101234.34;6195375;28;20083;-73
2023/05/23 07:03:10;;;;;;;13.27;6.63;;;;;;;13.20;100.00;101253.91;6194820;28;20046;-73
2023/05/23 07:06:12;;;;;;;14.35;6.93;;;;;;;13.20;100.00;101258.34;6223124;28;20045;-74
2023/05/23 07:09:13;;;;;;;16.77;6.97;;;;;;;13.19;100.00;101269.84;6225996;28;20446;-74
2023/05/23 07:12:14;;;;;;;14.98;6.10;;;;;;;13.04;100.00;101271.53;6226284;28;20340;-74
2023/05/23 07:15:16;;;;;;;22.60;7.15;;;;;;;12.99;100.00;101267.44;6209866;28;20068;-74
2023/05/23 07:18:20;;;;;;;10.27;5.05;;;;;;;12.97;100.00;101275.44;6226308;28;20052;-75
2023/05/23 07:21:21;;;;;;;15.18;5.97;;;;;;;12.98;100.00;101277.13;6219559;28;20042;-75
2023/05/23 07:24:23;;;;;;;19.50;5.97;;;;;;;13.06;100.00;101293.41;6208062;28;20042;-76
2023/05/23 07:27:24;;;;;;;18.05;7.25;;;;;;;12.95;100.00;101293.16;6213470;28;20046;-75
2023/05/23 07:30:25;;;;;;;9.65;5.78;;;;;;;12.91;100.00;101294.25;6201154;28;20038;-75
2023/05/23 07:33:28;;;;;;;14.50;5.80;;;;;;;12.91;100.00;101296.91;6204885;28;20057;-75
2023/05/23 07:36:32;;;;;;;10.85;4.88;;;;;;;12.92;100.00;101294.16;6219483;28;20060;-76
2023/05/23 07:39:34;;;;;;;18.58;5.60;;;;;;;12.95;100.00;101301.91;6208892;28;20045;-75
2023/05/23 07:42:35;;;;;;;16.30;5.47;;;;;;;12.76;100.00;101308.25;6201223;28;20042;-75
2023/05/23 07:45:36;;;;;;;13.65;4.68;;;;;;;12.77;100.00;101318.75;6195938;28;20072;-75
2023/05/23 07:48:39;;;;;;;8.48;4.65;;;;;;;12.75;100.00;101315.31;6208542;28;20046;-75
2023/05/23 07:51:41;;;;;;;11.82;4.97;;;;;;;12.67;100.00;101330.69;6201464;28;20061;-75
2023/05/23 07:54:43;;;;;;;13.00;4.30;;;;;;;12.60;100.00;101324.91;6209675;28;20042;-75
2023/05/23 07:57:44;;;;;;;8.60;4.30;;;;;;;12.62;100.00;101323.00;6201205;28;20061;-75
2023/05/23 08:00:45;;;;;;;13.93;4.20;;;;;;;12.62;100.00;101333.56;6209942;28;20053;-76
2023/05/23 08:03:48;;;;;;;13.68;4.65;;;;;;;12.58;100.00;101336.44;6217424;28;20050;-75
2023/05/23 08:06:49;;;;;;;15.70;4.43;;;;;;;12.62;100.00;101335.34;6209294;28;20054;-76
2023/05/23 08:09:51;;;;;;;11.82;3.70;;;;;;;12.52;100.00;101342.03;6221783;28;20050;-76
2023/05/23 08:12:52;;;;;;;15.55;4.93;;;;;;;12.39;100.00;101345.31;6205515;28;20062;-75
2023/05/23 08:15:53;;;;;;;12.40;4.53;;;;;;;12.39;100.00;101347.09;6196906;28;20054;-76
2023/05/23 08:18:56;;;;;;;11.18;5.20;;;;;;;12.36;100.00;101352.53;6207788;28;20327;-76
2023/05/23 08:21:57;;;;;;;18.20;4.72;;;;;;;12.35;100.00;101356.09;6215628;28;20453;-76
2023/05/23 08:24:59;;;;;;;9.73;5.10;;;;;;;12.38;100.00;101363.84;6206364;28;20042;-76
2023/05/23 08:28:01;;;;;;;12.63;4.43;;;;;;;12.36;100.00;101377.13;6206130;28;20050;-76
2023/05/23 08:31:02;;;;;;;10.15;4.10;;;;;;;12.40;100.00;101377.81;6216898;28;20042;-77
2023/05/23 08:34:06;;;;;;;9.13;3.88;;;;;;;12.42;100.00;101374.16;6206771;28;20457;-76
2023/05/23 08:37:07;;;;;;;10.85;3.92;;;;;;;12.32;100.00;101378.19;6213809;28;20061;-76
2023/05/23 08:40:14;;;;;;;16.88;4.78;;;;;;;12.40;100.00;101383.94;6214796;28;20045;-78
2023/05/23 08:43:15;;;;;;;12.70;4.63;;;;;;;12.39;100.00;101398.03;6204844;28;20042;-76
2023/05/23 08:46:17;;;;;;;10.65;3.78;;;;;;;12.35;100.00;101400.88;6211687;28;20050;-77
2023/05/23 08:49:21;;;;;;;10.15;3.25;;;;;;;12.27;100.00;101406.56;6218508;28;20041;-76
2023/05/23 08:52:27;;;;;;;7.43;3.47;;;;;;;12.09;100.00;101416.22;6229212;28;20057;-76
2023/05/23 08:55:29;;;;;;;6.32;3.08;;;;;;;11.98;100.00;101417.66;6221298;28;20350;-76
2023/05/23 08:58:33;;;;;;;8.38;3.42;;;;;;;11.78;100.00;101418.59;6228615;28;20395;-76
2023/05/23 09:01:35;;;;;;;8.57;3.22;;;;;;;11.82;100.00;101425.44;6205134;28;20070;-77
2023/05/23 09:04:38;;;;;;;8.35;3.40;;;;;;;11.89;100.00;101435.63;6211589;28;20057;-77
2023/05/23 09:07:40;;;;;;;7.25;3.58;;;;;;;11.88;100.00;101435.69;6205023;28;20050;-76
2023/05/23 09:10:41;;;;;;;4.40;2.97;;;;;;;11.92;100.00;101438.09;6203255;28;20065;-76
2023/05/23 09:13:43;;;;;;;12.40;3.50;;;;;;;11.99;100.00;101437.81;6197129;28;20050;-76
2023/05/23 09:16:47;;;;;;;4.00;2.58;;;;;;;12.00;100.00;101450.91;6200054;28;20054;-75
2023/05/23 09:19:50;;;;;;;6.45;2.88;;;;;;;11.96;100.00;101470.44;6203688;28;20355;-77
2023/05/23 09:22:51;;;;;;;5.43;2.65;;;;;;;11.89;100.00;101463.72;6204420;28;20050;-75
2023/05/23 09:25:53;;;;;;;3.55;2.47;;;;;;;11.81;100.00;101472.00;6205945;28;20062;-76
2023/05/23 09:28:57;;;;;;;5.75;2.03;;;;;;;11.90;100.00;101481.28;6210743;28;20433;-76
2023/05/23 09:32:00;;;;;;;5.00;2.08;;;;;;;11.83;100.00;101488.59;6217235;28;20050;-77
2023/05/23 09:35:04;;;;;;;10.45;3.65;;;;;;;11.73;100.00;101489.06;6205110;28;20132;-77
2023/05/23 09:38:07;;;;;;;10.20;3.80;;;;;;;11.71;100.00;101494.38;6215954;28;20050;-75
2023/05/23 09:41:11;;;;;;;11.93;4.25;;;;;;;11.65;100.00;101498.16;6198982;28;20039;-74
2023/05/23 09:44:12;;;;;;;9.90;4.00;;;;;;;11.67;100.00;101498.97;6206006;28;20053;-75
2023/05/23 09:47:15;;;;;;;13.10;5.63;;;;;;;11.66;100.00;101504.28;6206400;28;20142;-76
2023/05/23 09:50:18;;;;;;;10.85;4.43;;;;;;;11.75;100.00;101500.38;6203192;28;20038;-76
2023/05/23 09:53:21;;;;;;;18.83;5.72;;;;;;;11.82;100.00;101520.25;6203773;28;20053;-76
2023/05/23 09:56:24;;;;;;;14.35;4.65;;;;;;;11.67;100.00;101512.13;6203769;28;20497;-76
2023/05/23 09:59:28;;;;;;;13.25;5.35;;;;;;;11.65;100.00;101515.75;6203273;28;20431;-77
2023/05/23 10:02:54;;;;;;;10.27;4.45;;;;;;;11.66;100.00;101526.19;6195609;28;20054;-75
2023/05/23 10:06:01;;;;;;;12.38;3.00;;;;;;;11.77;100.00;101515.19;6198235;28;20050;-76
2023/05/23 10:09:05;;;;;;;6.85;2.90;;;;;;;11.84;100.00;101524.53;6199259;28;20051;-75
2023/05/23 10:12:42;;;;;;;7.22;2.47;;;;;;;11.90;100.00;101544.47;6215765;28;20093;-75
2023/05/23 10:15:43;;;;;;;6.72;3.40;;;;;;;11.85;100.00;101535.91;6200755;28;20189;-76
2023/05/23 10:18:48;;;;;;;5.80;2.78;;;;;;;11.90;100.00;101545.34;6213874;28;20057;-78
2023/05/23 10:21:58;;;;;;;7.65;3.53;;;;;;;11.91;100.00;101559.34;6204838;28;20050;-76
2023/05/23 10:24:59;;;;;;;16.83;3.78;;;;;;;11.80;100.00;101556.31;6227525;28;20430;-76
2023/05/23 10:28:02;;;;;;;11.13;4.38;;;;;;;11.85;100.00;101555.19;6227242;28;20049;-77
2023/05/23 10:31:03;;;;;;;7.20;3.60;;;;;;;11.87;100.00;101549.88;6226856;28;20046;-71
2023/05/23 10:34:12;;;;;;;12.68;3.70;;;;;;;11.93;100.00;101553.06;6217013;28;20056;-71
2023/05/23 10:37:22;;;;;;;10.63;3.42;;;;;;;11.83;100.00;101580.75;6203056;28;20055;-71
2023/05/23 10:40:31;;;;;;;6.43;2.95;;;;;;;11.99;100.00;101556.34;6201759;28;20038;-72
2023/05/23 10:43:42;;;;;;;8.48;2.97;;;;;;;11.99;100.00;101566.88;6202881;28;20057;-71
2023/05/23 10:46:52;;;;;;;14.07;2.83;;;;;;;12.03;100.00;101560.56;6202146;28;20061;-72
2023/05/23 10:49:55;;;;;;;7.93;2.40;;;;;;;11.99;100.00;101582.69;6201991;28;20081;-71
2023/05/23 10:52:59;;;;;;;7.13;2.30;;;;;;;11.74;100.00;101588.19;6202387;28;20061;-73
2023/05/23 10:56:00;;;;;;;11.18;2.85;;;;;;;11.67;100.00;101583.22;6202550;28;20050;-72
2023/05/23 10:59:05;;;;;;;16.75;3.50;;;;;;;11.81;100.00;101602.78;6201231;28;20053;-71
2023/05/23 11:02:14;;;;;;;9.52;3.83;;;;;;;11.94;100.00;101590.81;6194237;28;20050;-73
2023/05/23 11:05:19;;;;;;;9.77;3.38;;;;;;;12.13;100.00;101599.59;6202156;28;20065;-74
2023/05/23 11:08:24;;;;;;;12.18;3.60;;;;;;;12.17;100.00;101587.09;6202011;28;20120;-73
2023/05/23 11:11:25;;;;;;;12.40;2.85;;;;;;;12.26;100.00;101596.38;6201680;28;20042;-72
2023/05/23 11:14:51;;;;;;;14.13;3.70;;;;;;;12.27;100.00;101598.97;6202138;28;20427;-72
2023/05/23 11:17:54;;;;;;;10.07;2.30;;;;;;;12.47;100.00;101594.50;6195642;28;20534;-73
2023/05/23 11:21:00;;;;;;;8.05;2.67;;;;;;;12.41;100.00;101616.75;6214893;28;20054;-73
2023/05/23 11:24:03;;;;;;;14.75;2.63;;;;;;;12.46;100.00;101596.31;6225907;28;20056;-73
2023/05/23 11:27:11;;;;;;;5.88;2.05;;;;;;;12.55;100.00;101602.91;6225500;28;20042;-73
2023/05/23 11:30:15;;;;;;;9.82;2.58;;;;;;;12.53;100.00;101604.75;6219481;28;20046;-74
2023/05/23 11:33:17;;;;;;;15.95;2.70;;;;;;;12.57;100.00;101593.13;6200949;28;20352;-73
2023/05/23 11:36:20;;;;;;;6.82;2.10;;;;;;;12.61;100.00;101603.47;6201049;28;20047;-73
2023/05/23 11:39:23;;;;;;;8.27;2.50;;;;;;;12.67;100.00;101599.66;6211512;28;20042;-72
2023/05/23 11:42:25;;;;;;;19.90;3.33;;;;;;;12.64;100.00;101597.22;6200351;28;20049;-73
2023/05/23 11:45:28;;;;;;;9.18;2.65;;;;;;;12.64;100.00;101608.59;6215864;28;20053;-72
2023/05/23 11:48:29;;;;;;;11.85;4.43;;;;;;;12.74;100.00;101609.00;6204641;28;20177;-73
2023/05/23 11:51:31;;;;;;;9.60;3.67;;;;;;;12.79;100.00;101608.78;6224137;28;20042;-72
2023/05/23 11:54:34;;;;;;;12.73;3.03;;;;;;;12.93;100.00;101624.78;6226044;28;20053;-73
2023/05/23 11:57:38;;;;;;;6.55;3.22;;;;;;;13.06;100.00;101617.97;6204893;28;20435;-72
2023/05/23 12:00:43;;;;;;;5.97;2.30;;;;;;;13.26;100.00;101632.84;6200838;28;20050;-73
2023/05/23 12:03:46;;;;;;;10.82;2.45;;;;;;;13.17;100.00;101628.00;6217177;28;20461;-72
2023/05/23 12:06:48;;;;;;;7.88;2.17;;;;;;;13.20;100.00;101633.97;6226008;28;20050;-73
2023/05/23 12:09:55;;;;;;;7.53;2.15;;;;;;;13.05;100.00;101639.19;6224865;28;20069;-71
2023/05/23 12:12:57;;;;;;;12.98;2.83;;;;;;;13.01;100.00;101633.19;6225493;28;20058;-72
2023/05/23 12:16:00;;;;;;;8.57;2.88;;;;;;;13.15;100.00;101630.72;6225365;28;20480;-73
2023/05/23 12:19:02;;;;;;;9.63;3.03;;;;;;;13.27;100.00;101631.06;6199791;28;20054;-73
2023/05/23 12:22:06;;;;;;;20.85;3.60;;;;;;;13.57;100.00;101631.28;6201104;28;20046;-73
2023/05/23 12:25:10;;;;;;;10.45;2.42;;;;;;;13.72;100.00;101627.88;6200976;28;20133;-73
2023/05/23 12:28:12;;;;;;;13.00;3.03;;;;;;;13.61;100.00;101648.69;6201221;28;20169;-72
2023/05/23 12:31:16;;;;;;;11.90;3.58;;;;;;;13.43;100.00;101640.75;6197288;28;20042;-72
2023/05/23 12:34:20;;;;;;;8.70;3.10;;;;;;;13.37;100.00;101633.16;6211767;28;20057;-73
2023/05/23 12:37:23;;;;;;;13.55;3.60;;;;;;;13.35;100.00;101648.25;6200767;28;20446;-74
2023/05/23 12:40:26;;;;;;;11.45;4.05;;;;;;;13.37;100.00;101651.66;6200097;28;20078;-73
2023/05/23 12:43:27;;;;;;;6.95;3.60;;;;;;;13.46;100.00;101639.75;6200888;28;20050;-73
2023/05/23 12:46:28;;;;;;;10.57;3.40;;;;;;;13.56;100.00;101653.34;6200746;28;20046;-72
2023/05/23 12:49:30;;;;;;;11.57;3.92;;;;;;;13.59;100.00;101642.63;6199886;28;20050;-73
2023/05/23 12:52:31;;;;;;;10.48;4.60;;;;;;;13.73;100.00;101650.69;6200859;28;20046;-72
2023/05/23 12:55:34;;;;;;;7.47;3.95;;;;;;;13.61;100.00;101667.16;6200568;28;20047;-72
2023/05/23 12:58:35;;;;;;;11.55;4.38;;;;;;;13.65;100.00;101658.16;6212242;28;20049;-74
2023/05/23 13:01:37;;;;;;;10.65;3.67;;;;;;;13.75;100.00;101655.88;6224809;28;20446;-73
2023/05/23 13:04:38;;;;;;;10.98;4.60;;;;;;;13.75;100.00;101658.53;6227980;28;20054;-74
2023/05/23 13:07:40;;;;;;;7.53;2.80;;;;;;;13.61;100.00;101659.25;6226601;28;20120;-73
2023/05/23 13:10:42;;;;;;;7.50;3.58;;;;;;;13.56;100.00;101677.13;6205103;28;20038;-74
2023/05/23 13:13:44;;;;;;;13.18;3.88;;;;;;;13.51;100.00;101660.66;6213681;28;20060;-72
2023/05/23 13:16:45;;;;;;;9.43;3.30;;;;;;;13.64;100.00;101657.31;6217778;28;20058;-73
2023/05/23 13:19:47;;;;;;;9.02;4.10;;;;;;;13.64;100.00;101662.59;6221112;28;20358;-73
2023/05/23 13:22:48;;;;;;;5.85;2.85;;;;;;;14.13;100.00;101672.38;6217675;28;20050;-73
2023/05/23 13:25:51;;;;;;;7.93;2.75;;;;;;;14.52;100.00;101671.19;6205693;28;20073;-71
2023/05/23 13:28:52;;;;;;;6.72;1.90;;;;;;;14.55;100.00;101668.38;6211650;28;20050;-72
2023/05/23 13:31:54;;;;;;;7.43;2.00;;;;;;;14.29;100.00;101662.69;6209570;28;20046;-73
2023/05/23 13:34:55;;;;;;;8.82;2.50;;;;;;;14.10;100.00;101681.31;6220405;28;20129;-71
2023/05/23 13:37:56;;;;;;;8.77;2.60;;;;;;;14.14;100.00;101682.03;6217665;28;20057;-73
2023/05/23 13:40:59;;;;;;;5.22;1.83;;;;;;;14.25;100.00;101678.78;6214250;28;20458;-74
2023/05/23 13:44:01;;;;;;;10.70;2.55;;;;;;;14.40;100.00;101677.97;6213456;28;20053;-74
2023/05/23 13:47:10;;;;;;;6.82;2.60;;;;;;;14.59;100.00;101672.56;6211898;28;20039;-73
2023/05/23 13:50:12;;;;;;;6.38;2.45;;;;;;;14.81;100.00;101690.75;6207794;28;20046;-73